createdAt,value
2022-07-27T00:01:18.304Z,31.80
2022-07-27T00:03:46.834Z,31.80
2022-07-27T00:06:15.745Z,31.70
2022-07-27T00:08:44.343Z,31.50
2022-07-27T00:11:14.226Z,31.30
2022-07-27T00:13:42.754Z,31.20
2022-07-27T00:16:11.668Z,31.10
2022-07-27T00:18:40.145Z,31.00
2022-07-27T00:21:08.703Z,31.00
2022-07-27T00:23:37.335Z,31.00
2022-07-27T00:26:05.739Z,30.80
2022-07-27T00:28:34.758Z,30.40
2022-07-27T00:31:03.705Z,30.00
2022-07-27T00:33:32.361Z,29.60
2022-07-27T00:36:02.411Z,29.40
2022-07-27T00:38:31.133Z,29.20
2022-07-27T00:40:59.622Z,29.30
2022-07-27T00:43:28.122Z,29.40
2022-07-27T00:45:56.792Z,29.40
2022-07-27T00:48:26.501Z,29.40
2022-07-27T00:50:56.131Z,29.40
2022-07-27T00:53:24.896Z,29.40
2022-07-27T00:55:53.362Z,29.30
2022-07-27T00:58:21.762Z,29.40
2022-07-27T01:01:08.951Z,29.60
2022-07-27T01:03:37.517Z,29.80
2022-07-27T01:06:09.471Z,30.10
2022-07-27T01:08:38.474Z,30.30
2022-07-27T01:11:07.011Z,30.40
2022-07-27T01:13:35.990Z,30.40
2022-07-27T01:16:07.219Z,30.30
2022-07-27T01:18:38.801Z,30.30
2022-07-27T01:21:09.473Z,30.30
2022-07-27T01:23:38.072Z,30.30
2022-07-27T01:26:08.252Z,30.40
2022-07-27T01:28:37.051Z,30.40
2022-07-27T01:31:05.633Z,30.40
2022-07-27T01:33:34.210Z,30.30
2022-07-27T01:36:03.071Z,30.20
2022-07-27T01:38:31.552Z,30.00
2022-07-27T01:41:00.079Z,29.70
2022-07-27T01:43:28.741Z,29.40
2022-07-27T01:45:57.253Z,29.50
2022-07-27T01:48:36.199Z,29.50
2022-07-27T01:51:04.984Z,29.30
2022-07-27T01:53:33.403Z,29.20
2022-07-27T01:56:01.833Z,29.20
2022-07-27T01:58:30.564Z,29.30
2022-07-27T02:00:58.961Z,29.20
2022-07-27T02:03:27.736Z,29.10
2022-07-27T02:05:56.549Z,29.20
2022-07-27T02:08:25.061Z,29.20
2022-07-27T02:11:12.731Z,28.90
2022-07-27T02:13:45.047Z,28.70
2022-07-27T02:16:17.061Z,28.50
2022-07-27T02:18:48.762Z,28.50
2022-07-27T02:21:17.617Z,28.60
2022-07-27T02:23:47.477Z,28.60
2022-07-27T02:26:16.342Z,28.50
2022-07-27T02:28:44.750Z,28.40
2022-07-27T02:31:13.204Z,28.40
2022-07-27T02:33:41.930Z,28.40
2022-07-27T02:36:10.483Z,28.50
2022-07-27T02:38:38.830Z,28.70
2022-07-27T02:41:07.641Z,29.00
2022-07-27T02:43:36.203Z,29.10
2022-07-27T02:46:05.155Z,29.30
2022-07-27T02:48:34.379Z,29.40
2022-07-27T02:51:03.111Z,29.50
2022-07-27T02:53:31.711Z,29.60
2022-07-27T02:56:00.381Z,29.70
2022-07-27T02:58:28.992Z,29.70
2022-07-27T03:00:58.780Z,29.70
2022-07-27T03:03:33.818Z,29.80
2022-07-27T03:06:08.971Z,29.80
2022-07-27T03:08:38.538Z,29.80
2022-07-27T03:11:08.699Z,29.80
2022-07-27T03:13:37.330Z,29.90
2022-07-27T03:16:06.763Z,29.90
2022-07-27T03:18:35.854Z,29.90
2022-07-27T03:21:04.749Z,30.00
2022-07-27T03:23:35.470Z,30.00
2022-07-27T03:26:04.040Z,30.00
2022-07-27T03:28:32.558Z,29.90
2022-07-27T03:31:01.604Z,30.00
2022-07-27T03:33:30.265Z,29.90
2022-07-27T03:35:58.709Z,29.90
2022-07-27T03:38:27.330Z,29.80
2022-07-27T03:40:56.374Z,29.90
2022-07-27T03:43:24.864Z,29.80
2022-07-27T03:45:53.727Z,29.80
2022-07-27T03:48:22.271Z,29.80
2022-07-27T03:50:50.660Z,29.70
2022-07-27T03:53:21.546Z,29.70
2022-07-27T03:55:50.930Z,29.60
2022-07-27T03:58:19.691Z,29.50
2022-07-27T04:00:48.086Z,29.40
2022-07-27T04:03:18.041Z,29.40
2022-07-27T04:05:46.719Z,29.30
2022-07-27T04:08:15.270Z,29.30
2022-07-27T04:10:44.089Z,29.40
2022-07-27T04:13:14.573Z,29.30
2022-07-27T04:15:43.130Z,29.20
2022-07-27T04:18:11.610Z,29.00
2022-07-27T04:20:40.381Z,28.70
2022-07-27T04:23:08.890Z,28.40
2022-07-27T04:25:37.320Z,28.50
2022-07-27T04:28:06.681Z,28.60
2022-07-27T04:30:35.366Z,28.60
2022-07-27T04:33:05.460Z,28.70
2022-07-27T04:35:34.260Z,28.60
2022-07-27T04:38:02.658Z,28.40
2022-07-27T04:40:33.235Z,28.20
2022-07-27T04:43:03.734Z,28.00
2022-07-27T04:45:32.365Z,28.10
2022-07-27T04:48:02.273Z,28.40
2022-07-27T04:50:31.119Z,28.40
2022-07-27T04:52:59.830Z,28.20
2022-07-27T04:55:28.301Z,28.10
2022-07-27T04:57:57.239Z,27.90
2022-07-27T05:00:25.804Z,27.70
2022-07-27T05:05:24.030Z,27.60
2022-07-27T05:07:52.867Z,28.20
2022-07-27T05:10:21.442Z,28.50
2022-07-27T05:12:50.405Z,28.70
2022-07-27T05:15:18.978Z,28.80
2022-07-27T05:17:47.627Z,29.00
2022-07-27T05:20:16.501Z,29.00
2022-07-27T05:22:44.843Z,29.10
2022-07-27T05:25:13.332Z,29.10
2022-07-27T05:27:50.918Z,29.20
2022-07-27T05:30:24.701Z,29.20
2022-07-27T05:32:53.966Z,29.20
2022-07-27T05:35:22.855Z,29.30
2022-07-27T05:37:51.452Z,29.40
2022-07-27T05:40:20.153Z,29.40
2022-07-27T05:42:48.950Z,29.10
2022-07-27T05:45:17.424Z,29.00
2022-07-27T05:47:46.131Z,29.00
2022-07-27T05:50:15.737Z,29.10
2022-07-27T05:52:45.550Z,29.00
2022-07-27T05:55:15.153Z,28.80
2022-07-27T05:57:43.791Z,28.80
2022-07-27T06:00:12.911Z,28.70
2022-07-27T06:02:41.852Z,28.60
2022-07-27T06:05:15.550Z,28.40
2022-07-27T06:08:00.060Z,28.10
2022-07-27T06:10:33.974Z,28.00
2022-07-27T06:13:08.568Z,27.80
2022-07-27T06:15:37.384Z,27.80
2022-07-27T06:18:09.325Z,27.80
2022-07-27T06:20:37.907Z,27.70
2022-07-27T06:23:09.215Z,27.70
2022-07-27T06:25:37.794Z,27.80
2022-07-27T06:28:06.680Z,27.70
2022-07-27T06:30:35.464Z,27.60
2022-07-27T06:33:07.578Z,27.70
2022-07-27T06:35:39.103Z,27.70
2022-07-27T06:40:37.540Z,27.70
2022-07-27T06:43:06.017Z,27.50
2022-07-27T06:45:34.677Z,27.40
2022-07-27T06:48:03.588Z,27.50
2022-07-27T06:50:32.135Z,27.60
2022-07-27T06:53:00.595Z,27.60
2022-07-27T06:55:29.245Z,27.60
2022-07-27T06:57:57.785Z,27.40
2022-07-27T07:00:26.791Z,27.40
2022-07-27T07:03:02.346Z,27.50
2022-07-27T07:05:32.535Z,27.50
2022-07-27T07:08:11.752Z,27.50
2022-07-27T07:10:41.844Z,27.50
2022-07-27T07:13:10.769Z,27.50
2022-07-27T07:15:40.870Z,27.40
2022-07-27T07:18:09.828Z,27.50
2022-07-27T07:20:38.855Z,27.60
2022-07-27T07:23:07.455Z,27.60
2022-07-27T07:25:36.065Z,27.60
2022-07-27T07:28:06.276Z,27.50
2022-07-27T07:30:35.628Z,27.40
2022-07-27T07:33:04.415Z,27.20
2022-07-27T07:35:33.306Z,27.30
2022-07-27T07:38:01.804Z,27.40
2022-07-27T07:40:43.325Z,27.50
2022-07-27T07:43:13.697Z,27.50
2022-07-27T07:45:49.937Z,27.50
2022-07-27T07:48:22.448Z,27.60
2022-07-27T07:50:53.493Z,27.70
2022-07-27T07:53:25.507Z,27.80
2022-07-27T07:55:56.329Z,27.90
2022-07-27T07:58:25.181Z,28.00
2022-07-27T08:00:53.581Z,28.00
2022-07-27T08:03:22.079Z,28.10
2022-07-27T08:05:51.331Z,28.30
2022-07-27T08:08:19.849Z,28.40
2022-07-27T08:10:53.470Z,28.50
2022-07-27T08:13:22.863Z,28.50
2022-07-27T08:15:53.109Z,28.30
2022-07-27T08:18:21.984Z,28.30
2022-07-27T08:20:50.631Z,28.20
2022-07-27T08:23:19.049Z,28.30
2022-07-27T08:25:47.860Z,28.40
2022-07-27T08:28:16.322Z,28.50
2022-07-27T08:30:44.949Z,28.50
2022-07-27T08:33:13.609Z,28.40
2022-07-27T08:35:42.027Z,28.50
2022-07-27T08:38:10.519Z,28.60
2022-07-27T08:40:42.949Z,28.50
2022-07-27T08:43:24.942Z,28.50
2022-07-27T08:46:00.414Z,28.50
2022-07-27T08:48:31.567Z,28.50
2022-07-27T08:51:00.437Z,28.50
2022-07-27T08:53:35.863Z,28.50
2022-07-27T08:56:22.156Z,28.60
2022-07-27T08:58:50.808Z,28.70
2022-07-27T09:01:19.636Z,28.70
2022-07-27T09:03:48.511Z,28.80
2022-07-27T09:06:53.256Z,28.90
2022-07-27T09:09:23.449Z,29.00
2022-07-27T09:12:09.861Z,29.20
2022-07-27T09:14:40.708Z,29.20
2022-07-27T09:17:51.021Z,29.10
2022-07-27T09:20:21.288Z,29.20
2022-07-27T09:22:54.774Z,29.30
2022-07-27T09:26:00.319Z,29.40
2022-07-27T09:28:17.905Z,29.50
2022-07-27T09:30:46.763Z,29.60
2022-07-27T09:33:15.912Z,29.60
2022-07-27T09:35:46.413Z,29.60
2022-07-27T09:38:25.317Z,29.50
2022-07-27T09:41:05.358Z,29.50
2022-07-27T09:44:29.837Z,29.50
2022-07-27T09:46:43.820Z,29.60
2022-07-27T09:49:33.557Z,29.70
2022-07-27T09:52:03.416Z,29.80
2022-07-27T09:54:47.581Z,29.90
2022-07-27T09:57:16.250Z,29.90
2022-07-27T09:59:46.073Z,29.80
2022-07-27T10:02:15.095Z,29.90
2022-07-27T10:04:43.837Z,29.90
2022-07-27T10:07:13.745Z,29.90
2022-07-27T10:09:43.619Z,29.80
2022-07-27T10:12:12.159Z,29.80
2022-07-27T10:14:40.854Z,29.90
2022-07-27T10:17:13.166Z,30.00
2022-07-27T10:19:47.984Z,30.00
2022-07-27T10:22:16.549Z,29.80
2022-07-27T10:24:48.717Z,29.80
2022-07-27T10:27:29.317Z,29.90
2022-07-27T10:29:58.657Z,30.00
2022-07-27T10:32:32.362Z,30.10
2022-07-27T10:35:01.729Z,29.90
2022-07-27T10:37:34.528Z,29.90
2022-07-27T10:40:27.360Z,29.80
2022-07-27T10:43:20.984Z,29.80
2022-07-27T10:46:01.656Z,29.90
2022-07-27T10:48:48.382Z,30.00
2022-07-27T10:51:17.928Z,30.10
2022-07-27T10:54:11.444Z,30.10
2022-07-27T10:56:47.161Z,30.20
2022-07-27T10:59:15.899Z,30.10
2022-07-27T11:01:58.242Z,30.10
2022-07-27T11:04:27.089Z,30.10
2022-07-27T11:07:23.478Z,30.20
2022-07-27T11:10:04.719Z,30.20
2022-07-27T11:12:34.496Z,30.30
2022-07-27T11:15:03.040Z,30.20
2022-07-27T11:20:25.896Z,30.10
2022-07-27T11:23:48.626Z,30.20
2022-07-27T11:26:01.847Z,30.20
2022-07-27T11:28:35.047Z,30.30
2022-07-27T11:31:04.548Z,30.30
2022-07-27T11:33:33.586Z,30.30
2022-07-27T11:36:05.921Z,30.30
2022-07-27T11:38:53.127Z,30.30
2022-07-27T11:41:54.298Z,30.50
2022-07-27T11:44:19.659Z,30.50
2022-07-27T11:46:49.506Z,30.50
2022-07-27T11:49:32.083Z,30.60
2022-07-27T11:52:07.077Z,30.60
2022-07-27T11:54:41.197Z,30.70
2022-07-27T11:57:14.300Z,30.60
2022-07-27T11:59:46.448Z,30.60
2022-07-27T12:02:23.189Z,30.50
2022-07-27T12:04:52.584Z,30.50
2022-07-27T12:07:31.447Z,30.50
2022-07-27T12:10:03.370Z,30.60
2022-07-27T12:12:33.539Z,30.60
2022-07-27T12:15:45.931Z,30.50
2022-07-27T12:18:08.858Z,30.60
2022-07-27T12:20:38.032Z,30.60
2022-07-27T12:23:08.519Z,30.60
2022-07-27T12:25:39.294Z,30.60
2022-07-27T12:28:18.100Z,30.60
2022-07-27T12:30:52.242Z,30.70
2022-07-27T12:33:35.901Z,30.70
2022-07-27T12:36:07.017Z,30.70
2022-07-27T12:38:49.157Z,30.60
2022-07-27T12:41:44.031Z,30.70
2022-07-27T12:44:17.286Z,30.70
2022-07-27T12:46:56.528Z,30.70
2022-07-27T12:49:25.915Z,30.70
2022-07-27T12:51:54.526Z,30.60
2022-07-27T12:54:23.007Z,30.60
2022-07-27T12:56:52.828Z,30.60
2022-07-27T12:59:23.550Z,30.60
2022-07-27T13:01:53.512Z,30.70
2022-07-27T13:04:22.870Z,30.60
2022-07-27T13:06:51.513Z,30.60
2022-07-27T13:09:20.039Z,30.60
2022-07-27T13:11:48.805Z,30.70
2022-07-27T13:14:17.235Z,30.60
2022-07-27T13:16:45.868Z,30.60
2022-07-27T13:19:16.080Z,30.60
2022-07-27T13:21:45.352Z,30.60
2022-07-27T13:24:13.857Z,30.60
2022-07-27T13:26:43.039Z,30.60
2022-07-27T13:29:11.891Z,30.60
2022-07-27T13:31:49.016Z,30.70
2022-07-27T13:34:20.935Z,30.60
2022-07-27T13:36:49.435Z,30.60
2022-07-27T13:39:18.020Z,30.70
2022-07-27T13:41:52.386Z,30.60
2022-07-27T13:44:57.436Z,30.60
2022-07-27T13:47:12.935Z,30.70
2022-07-27T13:49:41.518Z,30.70
2022-07-27T13:52:12.620Z,30.70
2022-07-27T13:54:42.400Z,30.60
2022-07-27T13:57:11.022Z,30.60
2022-07-27T13:59:39.745Z,30.70
2022-07-27T14:02:09.191Z,30.70
2022-07-27T14:04:38.347Z,30.80
2022-07-27T14:07:09.788Z,30.80
2022-07-27T14:09:57.182Z,30.90
2022-07-27T14:12:26.210Z,30.90
2022-07-27T14:14:54.939Z,30.90
2022-07-27T14:17:24.100Z,30.90
2022-07-27T14:19:53.138Z,30.90
2022-07-27T14:22:21.827Z,30.90
2022-07-27T14:24:50.716Z,30.90
2022-07-27T14:27:19.621Z,30.90
2022-07-27T14:29:48.148Z,30.90
2022-07-27T14:32:19.782Z,30.90
2022-07-27T14:34:49.226Z,31.00
2022-07-27T14:37:17.887Z,31.00
2022-07-27T14:39:46.552Z,31.00
2022-07-27T14:42:15.577Z,31.00
2022-07-27T14:44:44.278Z,31.00
2022-07-27T14:47:12.936Z,31.00
2022-07-27T14:49:42.387Z,31.00
2022-07-27T14:52:13.769Z,31.00
2022-07-27T14:54:44.037Z,31.10
2022-07-27T14:57:13.157Z,31.00
2022-07-27T14:59:41.939Z,31.00
2022-07-27T15:02:11.225Z,31.10
2022-07-27T15:04:39.937Z,31.10
2022-07-27T15:07:08.591Z,31.10
2022-07-27T15:09:37.467Z,31.10
2022-07-27T15:12:06.593Z,31.10
2022-07-27T15:14:39.366Z,31.10
2022-07-27T15:17:08.377Z,31.10
2022-07-27T15:19:37.039Z,31.10
2022-07-27T15:22:05.744Z,31.20
2022-07-27T15:24:38.225Z,31.10
2022-07-27T15:27:07.263Z,31.10
2022-07-27T15:29:36.885Z,31.10
2022-07-27T15:32:07.113Z,31.10
2022-07-27T15:34:36.928Z,31.10
2022-07-27T15:37:07.790Z,31.10
2022-07-27T15:39:38.657Z,31.10
2022-07-27T15:42:08.394Z,31.00
2022-07-27T15:44:37.643Z,31.10
2022-07-27T15:47:06.442Z,31.10
2022-07-27T15:49:35.324Z,31.10
2022-07-27T15:52:04.334Z,31.10
2022-07-27T15:54:38.961Z,31.10
2022-07-27T15:57:11.370Z,31.10
2022-07-27T15:59:39.994Z,31.10
2022-07-27T16:02:08.712Z,31.10
2022-07-27T16:04:37.514Z,31.10
2022-07-27T16:07:06.140Z,31.00
2022-07-27T16:09:36.583Z,31.00
2022-07-27T16:12:05.698Z,31.00
2022-07-27T16:14:34.343Z,31.00
2022-07-27T16:17:03.009Z,31.00
2022-07-27T16:19:32.367Z,31.00
2022-07-27T16:22:01.113Z,31.00
2022-07-27T16:24:30.663Z,30.90
2022-07-27T16:27:02.424Z,31.00
2022-07-27T16:29:31.862Z,30.90
2022-07-27T16:32:00.633Z,30.90
2022-07-27T16:34:31.706Z,30.90
2022-07-27T16:37:01.067Z,31.00
2022-07-27T16:39:30.203Z,31.00
2022-07-27T16:41:58.898Z,31.00
2022-07-27T16:44:27.784Z,30.90
2022-07-27T16:46:56.752Z,30.90
2022-07-27T16:49:33.837Z,30.90
2022-07-27T16:52:06.797Z,30.90
2022-07-27T16:54:39.305Z,31.00
2022-07-27T16:57:11.743Z,31.00
2022-07-27T16:59:42.148Z,31.00
2022-07-27T17:02:11.634Z,31.00
2022-07-27T17:04:40.385Z,31.00
2022-07-27T17:07:12.629Z,30.90
2022-07-27T17:09:41.760Z,30.90
2022-07-27T17:12:10.271Z,30.80
2022-07-27T17:14:38.972Z,30.80
2022-07-27T17:17:08.984Z,30.80
2022-07-27T17:19:37.679Z,30.70
2022-07-27T17:22:07.150Z,30.60
2022-07-27T17:24:38.187Z,30.60
2022-07-27T17:27:07.247Z,30.70
2022-07-27T17:29:35.933Z,30.80
2022-07-27T17:32:05.028Z,30.70
2022-07-27T17:34:33.652Z,30.70
2022-07-27T17:37:02.969Z,30.80
2022-07-27T17:39:32.328Z,30.70
2022-07-27T17:42:00.990Z,30.70
2022-07-27T17:44:29.840Z,30.90
2022-07-27T17:47:01.282Z,30.90
2022-07-27T17:49:30.144Z,30.80
2022-07-27T17:51:58.866Z,30.70
2022-07-27T17:54:27.843Z,30.70
2022-07-27T17:56:57.028Z,30.70
2022-07-27T17:59:37.581Z,30.80
2022-07-27T18:02:07.609Z,30.80
2022-07-27T18:04:39.488Z,30.80
2022-07-27T18:07:08.733Z,30.90
2022-07-27T18:09:37.549Z,30.80
2022-07-27T18:12:07.134Z,30.80
2022-07-27T18:14:38.332Z,30.80
2022-07-27T18:17:07.183Z,30.80
2022-07-27T18:19:36.622Z,30.80
2022-07-27T18:22:05.417Z,30.90
2022-07-27T18:24:36.109Z,30.90
2022-07-27T18:27:05.968Z,30.90
2022-07-27T18:29:35.314Z,30.80
2022-07-27T18:32:04.082Z,30.80
2022-07-27T18:34:32.873Z,30.70
2022-07-27T18:37:01.554Z,30.70
2022-07-27T18:39:33.782Z,30.80
2022-07-27T18:42:04.220Z,30.80
2022-07-27T18:44:38.741Z,30.80
2022-07-27T18:47:08.290Z,30.80
2022-07-27T18:49:37.044Z,30.90
2022-07-27T18:52:06.734Z,30.80
2022-07-27T18:54:35.534Z,30.80
2022-07-27T18:57:04.739Z,30.80
2022-07-27T18:59:35.485Z,30.80
2022-07-27T19:02:10.274Z,30.80
2022-07-27T19:04:39.129Z,30.80
2022-07-27T19:07:11.168Z,30.80
2022-07-27T19:09:43.529Z,30.80
2022-07-27T19:12:12.719Z,30.80
2022-07-27T19:14:41.373Z,30.80
2022-07-27T19:17:10.767Z,30.80
2022-07-27T19:19:44.362Z,30.80
2022-07-27T19:22:14.012Z,30.80
2022-07-27T19:24:42.599Z,30.80
2022-07-27T19:27:11.478Z,30.80
2022-07-27T19:29:41.270Z,30.80
2022-07-27T19:32:13.129Z,30.80
2022-07-27T19:34:41.990Z,30.80
2022-07-27T19:37:11.731Z,30.80
2022-07-27T19:40:02.416Z,30.70
2022-07-27T19:42:29.408Z,30.70
2022-07-27T19:44:58.169Z,30.70
2022-07-27T19:47:26.858Z,30.70
2022-07-27T19:49:56.041Z,30.70
2022-07-27T19:52:24.850Z,30.70
2022-07-27T19:54:53.601Z,30.70
2022-07-27T19:57:22.557Z,30.70
2022-07-27T19:59:55.752Z,30.60
2022-07-27T20:02:25.889Z,30.60
2022-07-27T20:04:54.855Z,30.60
2022-07-27T20:07:23.503Z,30.60
2022-07-27T20:09:52.505Z,30.60
2022-07-27T20:12:21.750Z,30.60
2022-07-27T20:14:50.480Z,30.60
2022-07-27T20:17:19.437Z,30.60
2022-07-27T20:19:48.230Z,30.60
2022-07-27T20:22:16.920Z,30.60
2022-07-27T20:24:45.890Z,30.60
2022-07-27T20:27:14.609Z,30.60
2022-07-27T20:29:43.293Z,30.60
2022-07-27T20:32:13.360Z,30.60
2022-07-27T20:34:42.034Z,30.60
2022-07-27T20:37:12.083Z,30.60
2022-07-27T20:39:41.060Z,30.50
2022-07-27T20:42:09.726Z,30.50
2022-07-27T20:44:38.657Z,30.60
2022-07-27T20:47:08.458Z,30.60
2022-07-27T20:49:37.219Z,30.50
2022-07-27T20:52:06.377Z,30.60
2022-07-27T20:54:35.997Z,30.60
2022-07-27T20:57:05.596Z,30.50
2022-07-27T20:59:34.358Z,30.60
2022-07-27T21:02:03.295Z,30.60
2022-07-27T21:04:32.079Z,30.50
2022-07-27T21:07:00.809Z,30.50
2022-07-27T21:09:29.779Z,30.50
2022-07-27T21:11:58.628Z,30.50
2022-07-27T21:14:27.280Z,30.50
2022-07-27T21:16:56.244Z,30.50
2022-07-27T21:19:26.183Z,30.50
2022-07-27T21:21:54.930Z,30.50
2022-07-27T21:24:24.000Z,30.50
2022-07-27T21:26:53.161Z,30.50
2022-07-27T21:29:22.375Z,30.50
2022-07-27T21:31:51.619Z,30.50
2022-07-27T21:34:21.364Z,30.50
2022-07-27T21:36:50.159Z,30.50
2022-07-27T21:39:19.742Z,30.50
2022-07-27T21:41:48.542Z,30.40
2022-07-27T21:44:17.603Z,30.50
2022-07-27T21:46:48.772Z,30.50
2022-07-27T21:49:17.958Z,30.50
2022-07-27T21:51:52.141Z,30.50
2022-07-27T21:54:21.689Z,30.40
2022-07-27T21:56:50.852Z,30.50
2022-07-27T21:59:19.969Z,30.40
2022-07-27T22:01:48.602Z,30.40
2022-07-27T22:04:18.813Z,30.40
2022-07-27T22:06:48.101Z,30.40
2022-07-27T22:09:16.650Z,30.40
2022-07-27T22:11:47.062Z,30.40
2022-07-27T22:14:16.572Z,30.40
2022-07-27T22:19:14.627Z,30.30
2022-07-27T22:21:43.637Z,30.20
2022-07-27T22:26:41.659Z,30.00
2022-07-27T22:29:10.587Z,30.00
2022-07-27T22:31:39.276Z,30.00
2022-07-27T22:34:08.028Z,30.10
2022-07-27T22:36:36.977Z,30.10
2022-07-27T22:39:05.567Z,30.10
2022-07-27T22:41:34.198Z,30.10
2022-07-27T22:44:03.097Z,30.10
2022-07-27T22:46:31.840Z,30.10
2022-07-27T22:49:00.640Z,30.10
2022-07-27T22:51:50.355Z,30.10
2022-07-27T22:54:19.267Z,30.10
2022-07-27T22:56:48.671Z,30.10
2022-07-27T22:59:17.657Z,30.10
2022-07-27T23:01:48.190Z,30.10
2022-07-27T23:04:18.324Z,30.10
2022-07-27T23:06:47.739Z,30.00
2022-07-27T23:09:16.549Z,30.10
2022-07-27T23:11:45.662Z,30.00
2022-07-27T23:14:14.917Z,30.00
2022-07-27T23:16:44.328Z,30.00
2022-07-27T23:19:13.360Z,30.10
2022-07-27T23:21:42.454Z,30.00
2022-07-27T23:24:14.414Z,30.00
2022-07-27T23:26:43.900Z,30.00
2022-07-27T23:29:12.448Z,30.00
2022-07-27T23:31:41.481Z,30.10
2022-07-27T23:34:10.732Z,30.00
2022-07-27T23:36:43.455Z,30.00
2022-07-27T23:39:12.405Z,30.10
2022-07-27T23:41:41.137Z,30.10
2022-07-27T23:44:10.039Z,30.10
2022-07-27T23:46:39.962Z,30.00
2022-07-27T23:49:09.001Z,30.10
2022-07-27T23:51:37.740Z,30.00
2022-07-27T23:54:06.961Z,30.00
2022-07-27T23:56:35.790Z,30.00
2022-07-27T23:59:04.630Z,30.00
